sensor_id;sensor_type;location;lat;lon;timestamp;P1;durP1;ratioP1;P2;durP2;ratioP2
23317;SDS011;11831;55.918;37.746;2023-02-28T00:00:20;10.52;;;6.47;;
23317;SDS011;11831;55.918;37.746;2023-02-28T00:02:47;9.70;;;6.20;;
23317;SDS011;11831;55.918;37.746;2023-02-28T00:05:15;11.25;;;6.72;;
23317;SDS011;11831;55.918;37.746;2023-02-28T00:07:43;11.02;;;6.65;;
23317;SDS011;11831;55.918;37.746;2023-02-28T00:10:12;8.65;;;5.25;;
23317;SDS011;11831;55.918;37.746;2023-02-28T00:12:40;9.77;;;5.85;;
23317;SDS011;11831;55.918;37.746;2023-02-28T00:15:08;11.90;;;6.55;;
23317;SDS011;11831;55.918;37.746;2023-02-28T00:17:36;11.05;;;6.50;;
23317;SDS011;11831;55.918;37.746;2023-02-28T00:20:03;9.02;;;5.82;;
23317;SDS011;11831;55.918;37.746;2023-02-28T00:22:34;9.05;;;5.93;;
23317;SDS011;11831;55.918;37.746;2023-02-28T00:25:00;9.57;;;5.78;;
23317;SDS011;11831;55.918;37.746;2023-02-28T00:27:27;9.65;;;6.40;;
23317;SDS011;11831;55.918;37.746;2023-02-28T00:29:53;11.63;;;5.85;;
23317;SDS011;11831;55.918;37.746;2023-02-28T00:32:20;8.90;;;6.35;;
23317;SDS011;11831;55.918;37.746;2023-02-28T00:34:47;8.98;;;5.03;;
23317;SDS011;11831;55.918;37.746;2023-02-28T00:37:13;9.05;;;5.22;;
23317;SDS011;11831;55.918;37.746;2023-02-28T00:39:39;11.35;;;5.55;;
23317;SDS011;11831;55.918;37.746;2023-02-28T00:42:06;7.40;;;4.60;;
23317;SDS011;11831;55.918;37.746;2023-02-28T00:44:33;7.03;;;4.68;;
23317;SDS011;11831;55.918;37.746;2023-02-28T00:47:00;10.25;;;5.93;;
23317;SDS011;11831;55.918;37.746;2023-02-28T00:49:27;8.38;;;5.22;;
23317;SDS011;11831;55.918;37.746;2023-02-28T00:51:54;8.93;;;5.70;;
23317;SDS011;11831;55.918;37.746;2023-02-28T00:54:21;9.50;;;6.05;;
23317;SDS011;11831;55.918;37.746;2023-02-28T00:56:49;8.73;;;5.60;;
23317;SDS011;11831;55.918;37.746;2023-02-28T00:59:16;8.88;;;5.28;;
23317;SDS011;11831;55.918;37.746;2023-02-28T01:01:44;8.52;;;5.68;;
23317;SDS011;11831;55.918;37.746;2023-02-28T01:04:12;8.57;;;4.85;;
23317;SDS011;11831;55.918;37.746;2023-02-28T01:06:39;7.45;;;4.55;;
23317;SDS011;11831;55.918;37.746;2023-02-28T01:09:09;7.55;;;4.90;;
23317;SDS011;11831;55.918;37.746;2023-02-28T01:11:36;9.30;;;5.25;;
23317;SDS011;11831;55.918;37.746;2023-02-28T01:14:03;7.82;;;5.12;;
23317;SDS011;11831;55.918;37.746;2023-02-28T01:16:30;6.05;;;4.12;;
23317;SDS011;11831;55.918;37.746;2023-02-28T01:18:56;6.65;;;4.00;;
23317;SDS011;11831;55.918;37.746;2023-02-28T01:21:23;8.13;;;5.65;;
23317;SDS011;11831;55.918;37.746;2023-02-28T01:23:50;6.30;;;4.12;;
23317;SDS011;11831;55.918;37.746;2023-02-28T01:26:18;6.87;;;4.97;;
23317;SDS011;11831;55.918;37.746;2023-02-28T01:28:49;6.65;;;4.22;;
23317;SDS011;11831;55.918;37.746;2023-02-28T01:31:17;6.22;;;4.28;;
23317;SDS011;11831;55.918;37.746;2023-02-28T01:33:45;4.87;;;3.35;;
23317;SDS011;11831;55.918;37.746;2023-02-28T01:36:16;7.93;;;4.80;;
23317;SDS011;11831;55.918;37.746;2023-02-28T01:38:45;7.57;;;4.43;;
23317;SDS011;11831;55.918;37.746;2023-02-28T01:41:15;4.72;;;2.85;;
23317;SDS011;11831;55.918;37.746;2023-02-28T01:46:12;6.37;;;4.50;;
23317;SDS011;11831;55.918;37.746;2023-02-28T01:48:41;7.12;;;4.40;;
23317;SDS011;11831;55.918;37.746;2023-02-28T01:51:19;8.75;;;5.18;;
23317;SDS011;11831;55.918;37.746;2023-02-28T01:53:49;5.32;;;3.05;;
23317;SDS011;11831;55.918;37.746;2023-02-28T01:56:20;9.95;;;4.95;;
23317;SDS011;11831;55.918;37.746;2023-02-28T01:58:53;7.65;;;5.03;;
23317;SDS011;11831;55.918;37.746;2023-02-28T02:01:21;6.80;;;4.15;;
23317;SDS011;11831;55.918;37.746;2023-02-28T02:03:59;7.80;;;5.25;;
23317;SDS011;11831;55.918;37.746;2023-02-28T02:06:29;8.23;;;5.63;;
23317;SDS011;11831;55.918;37.746;2023-02-28T02:09:01;8.70;;;5.53;;
23317;SDS011;11831;55.918;37.746;2023-02-28T02:11:28;9.85;;;6.03;;
23317;SDS011;11831;55.918;37.746;2023-02-28T02:14:15;10.70;;;4.70;;
23317;SDS011;11831;55.918;37.746;2023-02-28T02:31:26;10.40;;;5.07;;
23317;SDS011;11831;55.918;37.746;2023-02-28T02:36:16;8.37;;;4.83;;
23317;SDS011;11831;55.918;37.746;2023-02-28T02:38:58;6.17;;;3.93;;
23317;SDS011;11831;55.918;37.746;2023-02-28T02:41:40;7.67;;;4.33;;
23317;SDS011;11831;55.918;37.746;2023-02-28T02:44:18;10.00;;;4.50;;
23317;SDS011;11831;55.918;37.746;2023-02-28T02:46:51;7.30;;;4.57;;
23317;SDS011;11831;55.918;37.746;2023-02-28T02:49:22;5.83;;;4.00;;
23317;SDS011;11831;55.918;37.746;2023-02-28T02:51:54;8.50;;;3.97;;
23317;SDS011;11831;55.918;37.746;2023-02-28T02:54:32;6.37;;;3.80;;
23317;SDS011;11831;55.918;37.746;2023-02-28T02:57:08;4.10;;;2.45;;
23317;SDS011;11831;55.918;37.746;2023-02-28T02:59:39;7.00;;;4.60;;
23317;SDS011;11831;55.918;37.746;2023-02-28T03:02:08;6.60;;;4.60;;
23317;SDS011;11831;55.918;37.746;2023-02-28T03:04:45;5.45;;;3.53;;
23317;SDS011;11831;55.918;37.746;2023-02-28T03:07:17;7.33;;;3.67;;
23317;SDS011;11831;55.918;37.746;2023-02-28T03:09:53;6.80;;;3.47;;
23317;SDS011;11831;55.918;37.746;2023-02-28T03:12:21;8.60;;;4.03;;
23317;SDS011;11831;55.918;37.746;2023-02-28T03:18:14;8.50;;;4.90;;
23317;SDS011;11831;55.918;37.746;2023-02-28T03:20:55;7.07;;;3.83;;
23317;SDS011;11831;55.918;37.746;2023-02-28T03:23:59;7.73;;;4.23;;
23317;SDS011;11831;55.918;37.746;2023-02-28T03:26:42;6.63;;;4.07;;
23317;SDS011;11831;55.918;37.746;2023-02-28T03:29:22;5.03;;;3.47;;
23317;SDS011;11831;55.918;37.746;2023-02-28T03:31:59;6.80;;;4.60;;
23317;SDS011;11831;55.918;37.746;2023-02-28T03:34:58;6.23;;;4.17;;
23317;SDS011;11831;55.918;37.746;2023-02-28T03:37:35;6.07;;;3.60;;
23317;SDS011;11831;55.918;37.746;2023-02-28T03:40:09;6.05;;;3.53;;
23317;SDS011;11831;55.918;37.746;2023-02-28T03:42:39;6.25;;;3.80;;
23317;SDS011;11831;55.918;37.746;2023-02-28T03:45:10;7.07;;;3.23;;
23317;SDS011;11831;55.918;37.746;2023-02-28T03:47:53;4.50;;;2.70;;
23317;SDS011;11831;55.918;37.746;2023-02-28T03:50:34;4.60;;;3.17;;
23317;SDS011;11831;55.918;37.746;2023-02-28T03:53:04;5.35;;;3.22;;
23317;SDS011;11831;55.918;37.746;2023-02-28T03:55:47;5.40;;;3.80;;
23317;SDS011;11831;55.918;37.746;2023-02-28T03:58:28;5.13;;;3.33;;
23317;SDS011;11831;55.918;37.746;2023-02-28T04:01:07;3.87;;;3.37;;
23317;SDS011;11831;55.918;37.746;2023-02-28T04:03:38;5.87;;;4.10;;
23317;SDS011;11831;55.918;37.746;2023-02-28T04:06:12;3.87;;;2.43;;
23317;SDS011;11831;55.918;37.746;2023-02-28T04:08:42;6.57;;;3.63;;
23317;SDS011;11831;55.918;37.746;2023-02-28T04:11:13;6.63;;;3.40;;
23317;SDS011;11831;55.918;37.746;2023-02-28T04:13:58;6.00;;;3.87;;
23317;SDS011;11831;55.918;37.746;2023-02-28T04:16:25;6.87;;;4.17;;
23317;SDS011;11831;55.918;37.746;2023-02-28T04:18:51;5.57;;;4.23;;
23317;SDS011;11831;55.918;37.746;2023-02-28T04:21:17;7.03;;;4.03;;
23317;SDS011;11831;55.918;37.746;2023-02-28T04:23:46;6.30;;;4.20;;
23317;SDS011;11831;55.918;37.746;2023-02-28T04:26:12;4.97;;;3.43;;
23317;SDS011;11831;55.918;37.746;2023-02-28T04:28:38;8.23;;;4.57;;
23317;SDS011;11831;55.918;37.746;2023-02-28T04:31:05;5.65;;;2.95;;
23317;SDS011;11831;55.918;37.746;2023-02-28T04:33:31;7.40;;;3.93;;
23317;SDS011;11831;55.918;37.746;2023-02-28T04:35:59;6.10;;;3.73;;
23317;SDS011;11831;55.918;37.746;2023-02-28T04:38:25;6.12;;;3.87;;
23317;SDS011;11831;55.918;37.746;2023-02-28T04:40:51;3.73;;;2.67;;
23317;SDS011;11831;55.918;37.746;2023-02-28T04:43:18;4.63;;;3.20;;
23317;SDS011;11831;55.918;37.746;2023-02-28T04:45:44;6.87;;;3.37;;
23317;SDS011;11831;55.918;37.746;2023-02-28T04:48:10;3.20;;;2.40;;
23317;SDS011;11831;55.918;37.746;2023-02-28T04:50:36;4.53;;;3.23;;
23317;SDS011;11831;55.918;37.746;2023-02-28T04:53:02;4.03;;;2.03;;
23317;SDS011;11831;55.918;37.746;2023-02-28T04:55:29;5.53;;;3.92;;
23317;SDS011;11831;55.918;37.746;2023-02-28T04:57:55;4.37;;;2.83;;
23317;SDS011;11831;55.918;37.746;2023-02-28T05:00:21;4.10;;;2.85;;
23317;SDS011;11831;55.918;37.746;2023-02-28T05:02:47;6.90;;;3.20;;
23317;SDS011;11831;55.918;37.746;2023-02-28T05:05:13;4.78;;;3.05;;
23317;SDS011;11831;55.918;37.746;2023-02-28T05:07:44;4.80;;;3.00;;
23317;SDS011;11831;55.918;37.746;2023-02-28T05:10:10;6.30;;;3.42;;
23317;SDS011;11831;55.918;37.746;2023-02-28T05:12:38;3.47;;;2.42;;
23317;SDS011;11831;55.918;37.746;2023-02-28T05:15:05;4.43;;;2.40;;
23317;SDS011;11831;55.918;37.746;2023-02-28T05:17:31;4.18;;;2.95;;
23317;SDS011;11831;55.918;37.746;2023-02-28T05:19:57;4.93;;;3.20;;
23317;SDS011;11831;55.918;37.746;2023-02-28T05:22:24;5.97;;;3.10;;
23317;SDS011;11831;55.918;37.746;2023-02-28T05:24:50;4.85;;;3.40;;
23317;SDS011;11831;55.918;37.746;2023-02-28T05:27:16;4.85;;;2.70;;
23317;SDS011;11831;55.918;37.746;2023-02-28T05:29:43;7.80;;;3.43;;
23317;SDS011;11831;55.918;37.746;2023-02-28T05:32:09;4.65;;;2.95;;
23317;SDS011;11831;55.918;37.746;2023-02-28T05:34:39;3.78;;;2.03;;
23317;SDS011;11831;55.918;37.746;2023-02-28T05:37:07;5.93;;;2.55;;
23317;SDS011;11831;55.918;37.746;2023-02-28T05:39:38;4.75;;;2.70;;
23317;SDS011;11831;55.918;37.746;2023-02-28T05:42:04;5.23;;;2.83;;
23317;SDS011;11831;55.918;37.746;2023-02-28T05:44:30;5.77;;;3.60;;
23317;SDS011;11831;55.918;37.746;2023-02-28T05:46:57;4.45;;;2.97;;
23317;SDS011;11831;55.918;37.746;2023-02-28T05:49:23;5.70;;;3.05;;
23317;SDS011;11831;55.918;37.746;2023-02-28T05:51:49;4.12;;;2.75;;
23317;SDS011;11831;55.918;37.746;2023-02-28T05:54:16;4.43;;;3.30;;
23317;SDS011;11831;55.918;37.746;2023-02-28T05:56:42;4.43;;;3.05;;
23317;SDS011;11831;55.918;37.746;2023-02-28T05:59:11;2.75;;;1.35;;
23317;SDS011;11831;55.918;37.746;2023-02-28T06:01:40;3.78;;;1.95;;
23317;SDS011;11831;55.918;37.746;2023-02-28T06:04:18;3.62;;;2.28;;
23317;SDS011;11831;55.918;37.746;2023-02-28T06:06:46;5.93;;;2.35;;
23317;SDS011;11831;55.918;37.746;2023-02-28T06:09:13;5.15;;;3.00;;
23317;SDS011;11831;55.918;37.746;2023-02-28T06:11:40;4.12;;;2.12;;
23317;SDS011;11831;55.918;37.746;2023-02-28T06:14:06;6.07;;;2.70;;
23317;SDS011;11831;55.918;37.746;2023-02-28T06:16:34;7.68;;;2.80;;
23317;SDS011;11831;55.918;37.746;2023-02-28T06:19:02;4.95;;;3.40;;
23317;SDS011;11831;55.918;37.746;2023-02-28T06:21:29;3.97;;;2.97;;
23317;SDS011;11831;55.918;37.746;2023-02-28T06:23:56;5.47;;;2.85;;
23317;SDS011;11831;55.918;37.746;2023-02-28T06:26:24;6.10;;;2.30;;
23317;SDS011;11831;55.918;37.746;2023-02-28T06:28:50;2.58;;;1.73;;
23317;SDS011;11831;55.918;37.746;2023-02-28T06:31:17;4.85;;;2.75;;
23317;SDS011;11831;55.918;37.746;2023-02-28T06:33:44;5.00;;;2.17;;
23317;SDS011;11831;55.918;37.746;2023-02-28T06:36:13;5.37;;;3.30;;
23317;SDS011;11831;55.918;37.746;2023-02-28T06:38:41;5.57;;;3.35;;
23317;SDS011;11831;55.918;37.746;2023-02-28T06:41:08;6.05;;;2.78;;
23317;SDS011;11831;55.918;37.746;2023-02-28T06:43:35;6.15;;;3.40;;
23317;SDS011;11831;55.918;37.746;2023-02-28T06:46:05;2.70;;;2.15;;
23317;SDS011;11831;55.918;37.746;2023-02-28T06:48:33;3.00;;;2.40;;
23317;SDS011;11831;55.918;37.746;2023-02-28T06:51:10;5.00;;;3.08;;
23317;SDS011;11831;55.918;37.746;2023-02-28T06:53:39;5.18;;;3.15;;
23317;SDS011;11831;55.918;37.746;2023-02-28T06:56:07;4.30;;;2.50;;
23317;SDS011;11831;55.918;37.746;2023-02-28T06:58:35;4.97;;;3.17;;
23317;SDS011;11831;55.918;37.746;2023-02-28T07:01:03;4.25;;;3.25;;
23317;SDS011;11831;55.918;37.746;2023-02-28T07:03:30;5.95;;;2.60;;
23317;SDS011;11831;55.918;37.746;2023-02-28T07:05:56;4.72;;;2.97;;
23317;SDS011;11831;55.918;37.746;2023-02-28T07:08:23;3.47;;;2.47;;
23317;SDS011;11831;55.918;37.746;2023-02-28T07:10:54;4.57;;;3.35;;
23317;SDS011;11831;55.918;37.746;2023-02-28T07:13:21;2.87;;;2.28;;
23317;SDS011;11831;55.918;37.746;2023-02-28T07:16:21;6.57;;;3.78;;
23317;SDS011;11831;55.918;37.746;2023-02-28T07:18:40;5.57;;;3.10;;
23317;SDS011;11831;55.918;37.746;2023-02-28T07:21:07;5.07;;;2.80;;
23317;SDS011;11831;55.918;37.746;2023-02-28T07:23:35;4.00;;;2.33;;
23317;SDS011;11831;55.918;37.746;2023-02-28T07:26:04;4.53;;;2.60;;
23317;SDS011;11831;55.918;37.746;2023-02-28T07:28:37;6.80;;;2.67;;
23317;SDS011;11831;55.918;37.746;2023-02-28T07:31:06;4.35;;;3.28;;
23317;SDS011;11831;55.918;37.746;2023-02-28T07:33:33;4.80;;;3.37;;
23317;SDS011;11831;55.918;37.746;2023-02-28T07:36:03;4.60;;;3.42;;
23317;SDS011;11831;55.918;37.746;2023-02-28T07:38:35;5.78;;;3.70;;
23317;SDS011;11831;55.918;37.746;2023-02-28T07:41:03;5.72;;;3.67;;
23317;SDS011;11831;55.918;37.746;2023-02-28T07:43:30;3.67;;;2.72;;
23317;SDS011;11831;55.918;37.746;2023-02-28T07:46:01;4.90;;;3.12;;
23317;SDS011;11831;55.918;37.746;2023-02-28T07:48:31;5.78;;;3.30;;
23317;SDS011;11831;55.918;37.746;2023-02-28T07:50:58;4.37;;;2.65;;
23317;SDS011;11831;55.918;37.746;2023-02-28T07:53:26;5.18;;;3.42;;
23317;SDS011;11831;55.918;37.746;2023-02-28T07:55:59;5.68;;;3.53;;
23317;SDS011;11831;55.918;37.746;2023-02-28T07:58:27;5.62;;;2.97;;
23317;SDS011;11831;55.918;37.746;2023-02-28T08:00:55;8.27;;;4.35;;
23317;SDS011;11831;55.918;37.746;2023-02-28T08:03:22;5.95;;;4.12;;
23317;SDS011;11831;55.918;37.746;2023-02-28T08:05:49;5.35;;;2.97;;
23317;SDS011;11831;55.918;37.746;2023-02-28T08:08:15;5.50;;;3.95;;
23317;SDS011;11831;55.918;37.746;2023-02-28T08:10:42;6.20;;;3.87;;
23317;SDS011;11831;55.918;37.746;2023-02-28T08:13:09;4.72;;;2.83;;
23317;SDS011;11831;55.918;37.746;2023-02-28T08:15:36;6.15;;;3.58;;
23317;SDS011;11831;55.918;37.746;2023-02-28T08:18:02;6.10;;;3.25;;
23317;SDS011;11831;55.918;37.746;2023-02-28T08:20:29;9.55;;;3.03;;
23317;SDS011;11831;55.918;37.746;2023-02-28T08:22:55;5.72;;;4.30;;
23317;SDS011;11831;55.918;37.746;2023-02-28T08:25:21;5.72;;;3.65;;
23317;SDS011;11831;55.918;37.746;2023-02-28T08:27:49;5.07;;;3.12;;
23317;SDS011;11831;55.918;37.746;2023-02-28T08:30:17;5.53;;;3.35;;
23317;SDS011;11831;55.918;37.746;2023-02-28T08:32:43;6.22;;;3.40;;
23317;SDS011;11831;55.918;37.746;2023-02-28T08:35:10;7.00;;;3.95;;
23317;SDS011;11831;55.918;37.746;2023-02-28T08:37:36;6.87;;;4.43;;
23317;SDS011;11831;55.918;37.746;2023-02-28T08:40:02;22.52;;;4.28;;
23317;SDS011;11831;55.918;37.746;2023-02-28T08:42:29;5.75;;;3.25;;
23317;SDS011;11831;55.918;37.746;2023-02-28T08:44:56;5.55;;;3.35;;
23317;SDS011;11831;55.918;37.746;2023-02-28T08:47:22;6.80;;;3.25;;
23317;SDS011;11831;55.918;37.746;2023-02-28T08:49:49;6.87;;;3.42;;
23317;SDS011;11831;55.918;37.746;2023-02-28T08:52:15;7.53;;;4.10;;
23317;SDS011;11831;55.918;37.746;2023-02-28T08:54:41;6.78;;;4.12;;
23317;SDS011;11831;55.918;37.746;2023-02-28T08:57:07;4.50;;;2.62;;
23317;SDS011;11831;55.918;37.746;2023-02-28T08:59:34;5.37;;;3.70;;
23317;SDS011;11831;55.918;37.746;2023-02-28T09:02:00;5.90;;;3.35;;
23317;SDS011;11831;55.918;37.746;2023-02-28T09:04:27;6.50;;;3.55;;
23317;SDS011;11831;55.918;37.746;2023-02-28T09:06:56;4.47;;;2.87;;
23317;SDS011;11831;55.918;37.746;2023-02-28T09:09:22;5.00;;;3.10;;
23317;SDS011;11831;55.918;37.746;2023-02-28T09:11:48;4.55;;;3.03;;
23317;SDS011;11831;55.918;37.746;2023-02-28T09:14:15;5.00;;;3.10;;
23317;SDS011;11831;55.918;37.746;2023-02-28T09:16:43;4.68;;;2.80;;
23317;SDS011;11831;55.918;37.746;2023-02-28T09:19:12;4.32;;;2.67;;
23317;SDS011;11831;55.918;37.746;2023-02-28T09:21:39;3.90;;;2.95;;
23317;SDS011;11831;55.918;37.746;2023-02-28T09:24:05;5.30;;;3.50;;
23317;SDS011;11831;55.918;37.746;2023-02-28T09:26:32;10.05;;;4.30;;
23317;SDS011;11831;55.918;37.746;2023-02-28T09:28:59;3.50;;;2.28;;
23317;SDS011;11831;55.918;37.746;2023-02-28T09:31:28;3.25;;;2.03;;
23317;SDS011;11831;55.918;37.746;2023-02-28T09:33:55;6.85;;;3.50;;
23317;SDS011;11831;55.918;37.746;2023-02-28T09:36:23;3.42;;;2.35;;
23317;SDS011;11831;55.918;37.746;2023-02-28T09:38:50;5.68;;;2.95;;
23317;SDS011;11831;55.918;37.746;2023-02-28T09:43:50;4.80;;;2.87;;
23317;SDS011;11831;55.918;37.746;2023-02-28T09:46:35;4.20;;;2.53;;
23317;SDS011;11831;55.918;37.746;2023-02-28T09:51:43;4.18;;;2.15;;
23317;SDS011;11831;55.918;37.746;2023-02-28T09:54:18;4.05;;;2.55;;
23317;SDS011;11831;55.918;37.746;2023-02-28T09:56:56;4.65;;;3.00;;
23317;SDS011;11831;55.918;37.746;2023-02-28T10:02:00;5.95;;;3.83;;
23317;SDS011;11831;55.918;37.746;2023-02-28T10:07:29;5.07;;;3.00;;
23317;SDS011;11831;55.918;37.746;2023-02-28T10:11:09;4.55;;;3.00;;
23317;SDS011;11831;55.918;37.746;2023-02-28T10:13:13;4.30;;;3.00;;
23317;SDS011;11831;55.918;37.746;2023-02-28T10:15:46;3.75;;;2.83;;
23317;SDS011;11831;55.918;37.746;2023-02-28T10:18:21;4.97;;;3.15;;
23317;SDS011;11831;55.918;37.746;2023-02-28T10:20:52;4.57;;;3.05;;
23317;SDS011;11831;55.918;37.746;2023-02-28T10:23:32;4.10;;;2.90;;
23317;SDS011;11831;55.918;37.746;2023-02-28T10:26:08;4.37;;;2.55;;
23317;SDS011;11831;55.918;37.746;2023-02-28T10:28:41;5.83;;;3.20;;
23317;SDS011;11831;55.918;37.746;2023-02-28T10:31:14;3.60;;;2.75;;
23317;SDS011;11831;55.918;37.746;2023-02-28T10:33:44;5.05;;;3.10;;
23317;SDS011;11831;55.918;37.746;2023-02-28T10:36:13;4.05;;;2.80;;
23317;SDS011;11831;55.918;37.746;2023-02-28T10:38:42;4.57;;;2.78;;
23317;SDS011;11831;55.918;37.746;2023-02-28T10:41:14;3.67;;;2.28;;
23317;SDS011;11831;55.918;37.746;2023-02-28T10:43:42;5.25;;;3.58;;
23317;SDS011;11831;55.918;37.746;2023-02-28T10:48:38;4.28;;;2.75;;
23317;SDS011;11831;55.918;37.746;2023-02-28T10:51:07;4.30;;;2.92;;
23317;SDS011;11831;55.918;37.746;2023-02-28T10:56:27;4.60;;;3.28;;
23317;SDS011;11831;55.918;37.746;2023-02-28T11:06:58;5.00;;;3.15;;
23317;SDS011;11831;55.918;37.746;2023-02-28T11:09:27;3.40;;;2.75;;
23317;SDS011;11831;55.918;37.746;2023-02-28T11:11:59;5.45;;;3.65;;
23317;SDS011;11831;55.918;37.746;2023-02-28T11:14:27;6.28;;;3.40;;
23317;SDS011;11831;55.918;37.746;2023-02-28T11:16:57;4.87;;;3.72;;
23317;SDS011;11831;55.918;37.746;2023-02-28T11:19:35;8.55;;;3.60;;
23317;SDS011;11831;55.918;37.746;2023-02-28T11:22:07;8.38;;;4.00;;
23317;SDS011;11831;55.918;37.746;2023-02-28T11:24:40;3.90;;;2.85;;
23317;SDS011;11831;55.918;37.746;2023-02-28T11:28:23;6.22;;;3.42;;
23317;SDS011;11831;55.918;37.746;2023-02-28T11:32:52;6.70;;;3.85;;
23317;SDS011;11831;55.918;37.746;2023-02-28T11:35:29;5.00;;;3.47;;
23317;SDS011;11831;55.918;37.746;2023-02-28T11:38:00;5.40;;;2.78;;
23317;SDS011;11831;55.918;37.746;2023-02-28T11:40:31;5.30;;;3.67;;
23317;SDS011;11831;55.918;37.746;2023-02-28T11:43:32;7.55;;;3.97;;
23317;SDS011;11831;55.918;37.746;2023-02-28T11:46:33;7.35;;;3.85;;
23317;SDS011;11831;55.918;37.746;2023-02-28T11:49:20;6.18;;;3.90;;
23317;SDS011;11831;55.918;37.746;2023-02-28T12:11:19;5.43;;;3.70;;
23317;SDS011;11831;55.918;37.746;2023-02-28T12:25:52;4.72;;;3.42;;
23317;SDS011;11831;55.918;37.746;2023-02-28T12:28:21;4.03;;;2.85;;
23317;SDS011;11831;55.918;37.746;2023-02-28T12:31:02;5.72;;;3.40;;
23317;SDS011;11831;55.918;37.746;2023-02-28T12:33:39;5.28;;;3.62;;
23317;SDS011;11831;55.918;37.746;2023-02-28T12:36:11;4.60;;;3.40;;
23317;SDS011;11831;55.918;37.746;2023-02-28T12:38:51;6.53;;;3.95;;
23317;SDS011;11831;55.918;37.746;2023-02-28T12:41:34;6.15;;;3.17;;
23317;SDS011;11831;55.918;37.746;2023-02-28T12:47:04;4.40;;;3.03;;
23317;SDS011;11831;55.918;37.746;2023-02-28T12:49:59;6.12;;;3.50;;
23317;SDS011;11831;55.918;37.746;2023-02-28T12:57:35;4.47;;;2.85;;
23317;SDS011;11831;55.918;37.746;2023-02-28T13:00:04;6.70;;;3.25;;
23317;SDS011;11831;55.918;37.746;2023-02-28T13:05:22;4.85;;;3.10;;
23317;SDS011;11831;55.918;37.746;2023-02-28T13:08:02;3.03;;;2.37;;
23317;SDS011;11831;55.918;37.746;2023-02-28T13:10:45;5.07;;;2.40;;
23317;SDS011;11831;55.918;37.746;2023-02-28T13:13:17;4.90;;;3.45;;
23317;SDS011;11831;55.918;37.746;2023-02-28T13:18:31;4.70;;;3.17;;
23317;SDS011;11831;55.918;37.746;2023-02-28T13:20:59;5.30;;;3.47;;
23317;SDS011;11831;55.918;37.746;2023-02-28T13:24:09;4.97;;;2.97;;
23317;SDS011;11831;55.918;37.746;2023-02-28T13:34:32;3.78;;;3.37;;
23317;SDS011;11831;55.918;37.746;2023-02-28T13:52:57;4.50;;;2.55;;
23317;SDS011;11831;55.918;37.746;2023-02-28T14:06:28;7.22;;;4.80;;
23317;SDS011;11831;55.918;37.746;2023-02-28T14:11:36;4.57;;;3.47;;
23317;SDS011;11831;55.918;37.746;2023-02-28T14:14:05;3.28;;;2.58;;
23317;SDS011;11831;55.918;37.746;2023-02-28T14:16:40;10.57;;;6.37;;
23317;SDS011;11831;55.918;37.746;2023-02-28T14:19:19;7.87;;;4.62;;
23317;SDS011;11831;55.918;37.746;2023-02-28T14:38:18;6.05;;;3.92;;
23317;SDS011;11831;55.918;37.746;2023-02-28T14:40:51;5.62;;;3.40;;
23317;SDS011;11831;55.918;37.746;2023-02-28T14:43:21;5.45;;;3.80;;
23317;SDS011;11831;55.918;37.746;2023-02-28T14:45:53;5.18;;;3.70;;
23317;SDS011;11831;55.918;37.746;2023-02-28T14:48:25;6.75;;;4.00;;
23317;SDS011;11831;55.918;37.746;2023-02-28T14:50:53;5.87;;;3.15;;
23317;SDS011;11831;55.918;37.746;2023-02-28T14:55:53;4.32;;;3.10;;
23317;SDS011;11831;55.918;37.746;2023-02-28T14:58:32;6.93;;;3.55;;
23317;SDS011;11831;55.918;37.746;2023-02-28T15:01:00;5.75;;;4.05;;
23317;SDS011;11831;55.918;37.746;2023-02-28T15:03:31;7.12;;;3.85;;
23317;SDS011;11831;55.918;37.746;2023-02-28T15:06:00;5.30;;;3.72;;
23317;SDS011;11831;55.918;37.746;2023-02-28T15:08:30;6.53;;;3.75;;
23317;SDS011;11831;55.918;37.746;2023-02-28T15:13:44;5.75;;;3.50;;
23317;SDS011;11831;55.918;37.746;2023-02-28T15:18:51;4.68;;;3.55;;
23317;SDS011;11831;55.918;37.746;2023-02-28T15:21:20;3.67;;;2.80;;
23317;SDS011;11831;55.918;37.746;2023-02-28T15:23:53;6.37;;;4.00;;
23317;SDS011;11831;55.918;37.746;2023-02-28T15:26:24;6.65;;;4.07;;
23317;SDS011;11831;55.918;37.746;2023-02-28T15:28:59;5.07;;;3.30;;
23317;SDS011;11831;55.918;37.746;2023-02-28T15:31:29;3.87;;;3.40;;
23317;SDS011;11831;55.918;37.746;2023-02-28T15:34:02;4.55;;;3.58;;
23317;SDS011;11831;55.918;37.746;2023-02-28T15:36:32;6.10;;;3.67;;
23317;SDS011;11831;55.918;37.746;2023-02-28T15:39:03;4.15;;;3.10;;
23317;SDS011;11831;55.918;37.746;2023-02-28T15:44:14;5.03;;;3.20;;
23317;SDS011;11831;55.918;37.746;2023-02-28T15:47:05;4.82;;;3.17;;
23317;SDS011;11831;55.918;37.746;2023-02-28T15:49:40;6.18;;;3.20;;
23317;SDS011;11831;55.918;37.746;2023-02-28T15:52:17;4.12;;;3.22;;
23317;SDS011;11831;55.918;37.746;2023-02-28T15:55:18;4.15;;;2.92;;
23317;SDS011;11831;55.918;37.746;2023-02-28T15:57:48;3.40;;;2.65;;
23317;SDS011;11831;55.918;37.746;2023-02-28T16:00:24;3.58;;;2.37;;
23317;SDS011;11831;55.918;37.746;2023-02-28T16:02:58;3.90;;;2.92;;
23317;SDS011;11831;55.918;37.746;2023-02-28T16:05:26;4.62;;;3.30;;
23317;SDS011;11831;55.918;37.746;2023-02-28T16:10:24;5.15;;;3.00;;
23317;SDS011;11831;55.918;37.746;2023-02-28T16:12:53;3.42;;;2.65;;
23317;SDS011;11831;55.918;37.746;2023-02-28T16:15:27;4.28;;;2.65;;
23317;SDS011;11831;55.918;37.746;2023-02-28T16:17:56;3.20;;;2.28;;
23317;SDS011;11831;55.918;37.746;2023-02-28T16:20:32;3.80;;;3.12;;
23317;SDS011;11831;55.918;37.746;2023-02-28T16:22:58;3.45;;;2.75;;
23317;SDS011;11831;55.918;37.746;2023-02-28T16:25:29;3.55;;;2.60;;
23317;SDS011;11831;55.918;37.746;2023-02-28T16:28:03;3.97;;;2.92;;
23317;SDS011;11831;55.918;37.746;2023-02-28T16:30:32;5.43;;;3.90;;
23317;SDS011;11831;55.918;37.746;2023-02-28T16:32:58;5.47;;;2.92;;
23317;SDS011;11831;55.918;37.746;2023-02-28T16:35:25;5.15;;;3.40;;
23317;SDS011;11831;55.918;37.746;2023-02-28T16:37:51;4.25;;;3.00;;
23317;SDS011;11831;55.918;37.746;2023-02-28T16:40:18;8.63;;;5.47;;
23317;SDS011;11831;55.918;37.746;2023-02-28T16:42:48;5.68;;;3.20;;
23317;SDS011;11831;55.918;37.746;2023-02-28T16:45:20;4.47;;;2.70;;
23317;SDS011;11831;55.918;37.746;2023-02-28T16:47:50;4.80;;;3.33;;
23317;SDS011;11831;55.918;37.746;2023-02-28T16:50:18;3.55;;;2.92;;
23317;SDS011;11831;55.918;37.746;2023-02-28T16:52:46;4.35;;;2.33;;
23317;SDS011;11831;55.918;37.746;2023-02-28T16:55:13;4.78;;;2.92;;
23317;SDS011;11831;55.918;37.746;2023-02-28T16:57:40;3.83;;;2.87;;
23317;SDS011;11831;55.918;37.746;2023-02-28T17:00:07;4.25;;;2.60;;
23317;SDS011;11831;55.918;37.746;2023-02-28T17:02:36;3.62;;;2.92;;
23317;SDS011;11831;55.918;37.746;2023-02-28T17:05:03;31.08;;;4.72;;
23317;SDS011;11831;55.918;37.746;2023-02-28T17:07:29;3.80;;;2.25;;
23317;SDS011;11831;55.918;37.746;2023-02-28T17:09:56;2.42;;;1.40;;
23317;SDS011;11831;55.918;37.746;2023-02-28T17:12:22;2.85;;;1.27;;
23317;SDS011;11831;55.918;37.746;2023-02-28T17:14:48;2.25;;;1.10;;
23317;SDS011;11831;55.918;37.746;2023-02-28T17:17:18;3.62;;;1.25;;
23317;SDS011;11831;55.918;37.746;2023-02-28T17:19:47;3.90;;;1.15;;
23317;SDS011;11831;55.918;37.746;2023-02-28T17:22:14;1.00;;;0.60;;
23317;SDS011;11831;55.918;37.746;2023-02-28T17:24:40;10.45;;;1.55;;
23317;SDS011;11831;55.918;37.746;2023-02-28T17:27:09;3.33;;;1.65;;
23317;SDS011;11831;55.918;37.746;2023-02-28T17:29:37;1.33;;;0.88;;
23317;SDS011;11831;55.918;37.746;2023-02-28T17:32:04;1.85;;;0.80;;
23317;SDS011;11831;55.918;37.746;2023-02-28T17:34:30;1.52;;;0.80;;